createdAt,value
2019-03-01T00:04:18.490Z,99.90
2019-03-01T00:07:09.476Z,99.90
2019-03-01T00:09:55.570Z,99.90
2019-03-01T00:12:39.011Z,99.90
2019-03-01T00:19:11.672Z,99.90
2019-03-01T00:21:54.789Z,99.90
2019-03-01T00:30:42.151Z,99.90
2019-03-01T00:33:26.191Z,99.90
2019-03-01T00:36:13.766Z,99.90
2019-03-01T00:38:59.714Z,99.90
2019-03-01T00:42:09.457Z,99.90
2019-03-01T00:44:53.743Z,99.90
2019-03-01T00:47:39.502Z,99.90
2019-03-01T00:53:06.773Z,99.90
2019-03-01T00:55:55.090Z,99.90
2019-03-01T00:58:42.941Z,99.90
2019-03-01T01:01:28.043Z,99.90
2019-03-01T01:04:19.347Z,99.90
2019-03-01T01:07:07.793Z,99.90
2019-03-01T01:09:54.142Z,99.90
2019-03-01T01:12:43.336Z,99.90
2019-03-01T01:15:27.918Z,99.90
2019-03-01T01:18:12.275Z,99.90
2019-03-01T01:21:00.589Z,99.90
2019-03-01T01:23:45.183Z,99.90
2019-03-01T01:26:32.992Z,99.90
2019-03-01T01:29:17.445Z,99.90
2019-03-01T01:32:02.942Z,99.90
2019-03-01T01:37:36.235Z,99.90
2019-03-01T01:40:21.149Z,99.90
2019-03-01T01:43:05.867Z,99.90
2019-03-01T01:45:55.944Z,99.90
2019-03-01T01:48:45.035Z,99.90
2019-03-01T01:51:31.277Z,99.90
2019-03-01T01:54:20.085Z,99.90
2019-03-01T01:57:06.562Z,99.90
2019-03-01T01:59:50.892Z,99.90
2019-03-01T02:02:35.934Z,99.90
2019-03-01T02:05:20.561Z,99.90
2019-03-01T02:08:05.119Z,99.90
2019-03-01T02:10:49.838Z,99.90
2019-03-01T02:16:41.707Z,99.90
2019-03-01T02:19:31.259Z,99.90
2019-03-01T02:22:16.621Z,99.90
2019-03-01T02:25:05.173Z,99.90
2019-03-01T02:30:41.551Z,99.90
2019-03-01T02:33:27.111Z,99.90
2019-03-01T02:36:12.357Z,99.90
2019-03-01T02:38:56.759Z,99.90
2019-03-01T02:41:44.715Z,99.90
2019-03-01T02:44:29.519Z,99.90
2019-03-01T02:49:56.782Z,99.90
2019-03-01T02:52:42.283Z,99.90
2019-03-01T02:58:18.551Z,99.90
2019-03-01T03:01:08.413Z,99.90
2019-03-01T03:03:53.538Z,99.90
2019-03-01T03:06:42.595Z,99.90
2019-03-01T03:09:30.887Z,99.90
2019-03-01T03:12:16.118Z,99.90
2019-03-01T03:18:02.519Z,99.90
2019-03-01T03:20:46.602Z,99.90
2019-03-01T03:23:36.055Z,99.90
2019-03-01T03:26:19.458Z,99.90
2019-03-01T03:29:03.763Z,99.90
2019-03-01T03:31:48.826Z,99.90
2019-03-01T03:34:32.475Z,99.90
2019-03-01T03:37:21.208Z,99.90
2019-03-01T03:40:05.060Z,99.90
2019-03-01T03:42:49.549Z,99.90
2019-03-01T03:45:38.613Z,99.90
2019-03-01T03:48:25.606Z,99.90
2019-03-01T03:51:10.472Z,99.90
2019-03-01T03:53:55.909Z,99.90
2019-03-01T03:56:44.693Z,99.90
2019-03-01T03:59:31.765Z,99.90
2019-03-01T04:05:17.448Z,99.90
2019-03-01T04:08:02.088Z,99.90
2019-03-01T04:10:46.116Z,99.90
2019-03-01T04:16:24.042Z,99.90
2019-03-01T04:19:09.863Z,99.90
2019-03-01T04:21:52.680Z,99.90
2019-03-01T04:24:23.558Z,99.90
2019-03-01T04:27:07.003Z,99.90
2019-03-01T04:29:51.870Z,99.90
2019-03-01T04:32:40.473Z,99.90
2019-03-01T04:35:24.635Z,99.90
2019-03-01T04:38:09.826Z,99.90
2019-03-01T04:40:42.471Z,99.90
2019-03-01T04:43:29.510Z,99.90
2019-03-01T04:46:16.658Z,99.90
2019-03-01T04:51:59.373Z,99.90
2019-03-01T04:54:42.707Z,99.90
2019-03-01T04:57:31.660Z,99.90
2019-03-01T05:00:17.254Z,99.90
2019-03-01T05:03:04.980Z,99.90
2019-03-01T05:05:49.410Z,99.90
2019-03-01T05:08:34.656Z,99.90
2019-03-01T05:11:21.464Z,99.90
2019-03-01T05:14:30.541Z,99.90
2019-03-01T05:17:19.390Z,99.90
2019-03-01T05:20:03.281Z,99.90
2019-03-01T05:22:52.391Z,99.90
2019-03-01T05:25:40.791Z,99.90
2019-03-01T05:28:28.740Z,99.90
2019-03-01T05:31:14.333Z,99.90
2019-03-01T05:34:01.196Z,99.90
2019-03-01T05:36:46.563Z,99.90
2019-03-01T05:39:32.367Z,99.90
2019-03-01T05:42:17.682Z,99.90
2019-03-01T05:45:04.410Z,99.90
2019-03-01T05:47:48.908Z,99.90
2019-03-01T05:50:37.868Z,99.90
2019-03-01T05:59:34.233Z,99.90
2019-03-01T06:02:22.402Z,99.90
2019-03-01T06:05:07.068Z,99.90
2019-03-01T06:07:56.865Z,99.90
2019-03-01T06:10:43.447Z,99.90
2019-03-01T06:13:27.932Z,99.90
2019-03-01T06:16:12.855Z,99.90
2019-03-01T06:18:57.656Z,99.90
2019-03-01T06:21:41.590Z,99.90
2019-03-01T06:24:29.770Z,99.90
2019-03-01T06:27:13.556Z,99.90
2019-03-01T06:30:03.206Z,99.90
2019-03-01T06:33:14.501Z,99.90
2019-03-01T06:35:59.202Z,99.90
2019-03-01T06:39:06.901Z,99.90
2019-03-01T06:41:58.129Z,99.90
2019-03-01T06:47:38.802Z,99.90
2019-03-01T06:50:44.309Z,99.90
2019-03-01T06:53:31.361Z,99.90
2019-03-01T06:56:07.170Z,99.90
2019-03-01T06:58:50.812Z,99.90
2019-03-01T07:04:45.388Z,99.90
2019-03-01T07:07:34.430Z,99.90
2019-03-01T07:10:41.835Z,99.90
2019-03-01T07:13:54.418Z,99.90
2019-03-01T07:16:37.814Z,99.90
2019-03-01T07:19:24.143Z,99.90
2019-03-01T07:22:07.446Z,99.90
2019-03-01T07:24:57.522Z,99.90
2019-03-01T07:27:40.190Z,99.90
2019-03-01T07:30:27.027Z,99.90
2019-03-01T07:33:14.547Z,99.90
2019-03-01T07:35:56.939Z,99.90
2019-03-01T07:38:42.193Z,99.90
2019-03-01T07:41:26.039Z,99.90
2019-03-01T07:44:12.805Z,99.90
2019-03-01T07:50:04.371Z,99.90
2019-03-01T07:59:00.226Z,99.90
2019-03-01T08:08:03.577Z,99.90
2019-03-01T08:13:44.073Z,99.90
2019-03-01T08:16:28.795Z,99.90
2019-03-01T08:19:17.074Z,99.90
2019-03-01T08:22:05.667Z,99.90
2019-03-01T08:25:13.741Z,99.90
2019-03-01T08:38:35.902Z,99.90
2019-03-01T08:41:02.019Z,99.90
2019-03-01T08:43:53.464Z,99.90
2019-03-01T08:46:50.415Z,99.90
2019-03-01T08:49:39.793Z,99.90
2019-03-01T08:52:12.385Z,99.90
2019-03-01T08:55:00.114Z,99.90
2019-03-01T08:57:44.472Z,99.90
2019-03-01T09:00:41.967Z,99.90
2019-03-01T09:10:50.633Z,99.90
2019-03-01T09:13:24.358Z,99.90
2019-03-01T09:16:03.491Z,99.90
2019-03-01T09:18:36.660Z,99.90
2019-03-01T09:21:12.971Z,99.90
2019-03-01T09:23:55.033Z,99.90
2019-03-01T09:26:31.616Z,99.90
2019-03-01T09:29:41.180Z,99.90
2019-03-01T09:32:10.734Z,99.90
2019-03-01T09:34:47.277Z,99.90
2019-03-01T09:40:29.705Z,99.90
2019-03-01T09:43:04.337Z,99.90
2019-03-01T09:45:38.200Z,99.90
2019-03-01T09:48:11.927Z,99.90
2019-03-01T09:50:42.082Z,99.90
2019-03-01T09:53:14.994Z,99.90
2019-03-01T09:56:01.125Z,99.90
2019-03-01T09:58:33.481Z,99.90
2019-03-01T10:01:09.016Z,99.90
2019-03-01T10:03:40.791Z,99.90
2019-03-01T10:06:11.469Z,99.90
2019-03-01T10:08:42.179Z,99.90
2019-03-01T10:11:14.078Z,99.90
2019-03-01T10:13:44.897Z,99.90
2019-03-01T10:16:15.764Z,99.90
2019-03-01T10:18:46.731Z,99.90
2019-03-01T10:21:19.087Z,99.90
2019-03-01T10:23:49.954Z,99.90
2019-03-01T10:26:20.722Z,99.90
2019-03-01T10:28:51.528Z,99.90
2019-03-01T10:31:25.182Z,99.90
2019-03-01T10:33:58.337Z,99.90
2019-03-01T10:36:29.185Z,99.90
2019-03-01T10:39:00.078Z,99.90
2019-03-01T10:41:30.815Z,99.90
2019-03-01T10:44:01.505Z,99.90
2019-03-01T10:46:32.219Z,99.90
2019-03-01T10:49:03.039Z,99.90
2019-03-01T10:51:33.958Z,99.90
2019-03-01T10:57:07.779Z,99.90
2019-03-01T10:59:38.508Z,99.90
2019-03-01T11:02:11.101Z,99.90
2019-03-01T11:04:43.110Z,99.90
2019-03-01T11:07:13.870Z,99.90
2019-03-01T11:09:45.127Z,99.90
2019-03-01T11:12:17.191Z,99.90
2019-03-01T11:14:47.821Z,99.90
2019-03-01T11:17:18.452Z,99.90
2019-03-01T11:19:49.533Z,99.90
2019-03-01T11:22:20.118Z,99.90
2019-03-01T11:24:50.817Z,99.90
2019-03-01T11:27:21.562Z,99.90
2019-03-01T11:29:55.856Z,99.90
2019-03-01T11:32:26.682Z,99.90
2019-03-01T11:34:59.251Z,99.90
2019-03-01T11:37:31.332Z,99.90
2019-03-01T11:40:02.108Z,99.90
2019-03-01T11:42:33.399Z,99.90
2019-03-01T11:45:04.932Z,99.90
2019-03-01T11:47:38.230Z,99.90
2019-03-01T11:50:12.645Z,99.90
2019-03-01T11:52:44.657Z,99.90
2019-03-01T11:55:24.862Z,99.90
2019-03-01T11:57:58.420Z,99.90
2019-03-01T12:00:32.319Z,99.90
2019-03-01T12:03:03.785Z,99.90
2019-03-01T12:05:34.944Z,99.90
2019-03-01T12:08:06.558Z,99.90
2019-03-01T12:10:38.995Z,99.90
2019-03-01T12:13:11.213Z,99.90
2019-03-01T12:15:42.083Z,99.90
2019-03-01T12:18:14.047Z,99.90
2019-03-01T12:20:49.468Z,99.90
2019-03-01T12:23:21.790Z,99.90
2019-03-01T12:25:52.618Z,99.90
2019-03-01T12:28:23.406Z,99.90
2019-03-01T12:30:55.532Z,99.90
2019-03-01T12:33:29.575Z,99.90
2019-03-01T12:36:00.265Z,99.90
2019-03-01T12:38:31.071Z,99.90
2019-03-01T12:41:02.070Z,99.90
2019-03-01T12:43:33.632Z,99.90
2019-03-01T12:46:04.594Z,99.90
2019-03-01T12:48:38.040Z,99.90
2019-03-01T12:51:10.141Z,99.90
2019-03-01T12:53:41.505Z,99.90
2019-03-01T12:56:12.543Z,99.90
2019-03-01T12:58:43.373Z,99.90
2019-03-01T13:01:14.794Z,99.90
2019-03-01T13:03:50.975Z,99.90
2019-03-01T13:06:24.730Z,99.90
2019-03-01T13:08:55.705Z,99.90
2019-03-01T13:11:26.699Z,99.90
2019-03-01T13:13:57.445Z,99.90
2019-03-01T13:16:28.151Z,99.90
2019-03-01T13:18:59.448Z,99.90
2019-03-01T13:21:30.465Z,99.90
2019-03-01T13:24:01.403Z,99.90
2019-03-01T13:26:32.398Z,99.90
2019-03-01T13:29:05.342Z,99.90
2019-03-01T13:31:36.358Z,99.90
2019-03-01T13:34:07.025Z,99.90
2019-03-01T13:36:43.141Z,99.90
2019-03-01T13:39:15.550Z,99.90
2019-03-01T13:41:48.143Z,99.50
2019-03-01T13:44:20.002Z,98.90
2019-03-01T13:46:54.576Z,99.30
2019-03-01T13:49:26.774Z,99.00
2019-03-01T13:51:57.850Z,99.30
2019-03-01T13:54:29.645Z,98.80
2019-03-01T13:57:00.669Z,99.20
2019-03-01T13:59:31.642Z,99.00
2019-03-01T14:02:07.332Z,98.60
2019-03-01T14:04:36.554Z,98.80
2019-03-01T14:07:08.042Z,98.70
2019-03-01T14:09:40.895Z,99.20
2019-03-01T14:12:11.661Z,98.80
2019-03-01T14:14:42.541Z,98.90
2019-03-01T14:17:13.583Z,98.80
2019-03-01T14:19:53.114Z,98.90
2019-03-01T14:22:24.044Z,98.90
2019-03-01T14:25:02.432Z,99.40
2019-03-01T14:27:35.673Z,99.20
2019-03-01T14:30:20.741Z,98.60
2019-03-01T14:32:57.786Z,98.60
2019-03-01T14:35:28.147Z,98.60
2019-03-01T14:38:02.085Z,98.60
2019-03-01T14:40:34.270Z,99.20
2019-03-01T14:43:05.500Z,99.20
2019-03-01T14:45:36.307Z,98.80
2019-03-01T14:48:08.690Z,98.40
2019-03-01T14:50:41.962Z,97.50
2019-03-01T14:53:12.873Z,97.00
2019-03-01T14:55:47.281Z,97.00
2019-03-01T14:58:32.277Z,97.70
2019-03-01T15:01:18.285Z,97.60
2019-03-01T15:03:53.201Z,98.20
2019-03-01T15:06:23.161Z,98.40
2019-03-01T15:08:54.826Z,98.30
2019-03-01T15:11:25.774Z,98.10
2019-03-01T15:13:57.975Z,98.30
2019-03-01T15:16:28.844Z,98.50
2019-03-01T15:19:04.601Z,98.30
2019-03-01T15:21:37.107Z,98.30
2019-03-01T15:24:06.934Z,98.50
2019-03-01T15:26:38.107Z,98.90
2019-03-01T15:29:11.885Z,98.50
2019-03-01T15:31:42.859Z,98.50
2019-03-01T15:34:13.761Z,98.60
2019-03-01T15:36:44.802Z,98.40
2019-03-01T15:39:16.775Z,98.40
2019-03-01T15:41:48.753Z,98.70
2019-03-01T15:44:19.802Z,98.00
2019-03-01T15:46:51.072Z,98.10
2019-03-01T15:49:23.695Z,98.20
2019-03-01T15:51:54.792Z,97.80
2019-03-01T15:54:25.805Z,97.50
2019-03-01T15:57:00.305Z,97.90
2019-03-01T15:59:35.193Z,97.30
2019-03-01T16:02:07.784Z,97.30
2019-03-01T16:04:38.858Z,96.50
2019-03-01T16:07:09.796Z,95.80
2019-03-01T16:09:45.164Z,96.30
2019-03-01T16:12:19.475Z,95.90
2019-03-01T16:14:51.527Z,95.10
2019-03-01T16:17:24.747Z,95.50
2019-03-01T16:19:59.271Z,95.60
2019-03-01T16:22:31.743Z,95.60
2019-03-01T16:25:11.937Z,95.60
2019-03-01T16:27:45.981Z,95.60
2019-03-01T16:30:19.095Z,95.10
2019-03-01T16:32:52.517Z,95.20
2019-03-01T16:35:24.778Z,94.70
2019-03-01T16:38:01.416Z,94.50
2019-03-01T16:40:32.265Z,94.10
2019-03-01T16:43:05.567Z,94.20
2019-03-01T16:45:40.722Z,93.90
2019-03-01T16:48:13.570Z,94.50
2019-03-01T16:50:47.919Z,94.80
2019-03-01T16:53:20.619Z,95.10
2019-03-01T16:55:53.006Z,95.20
2019-03-01T16:58:28.245Z,95.20
2019-03-01T17:01:01.373Z,95.50
2019-03-01T17:03:36.447Z,96.10
2019-03-01T17:06:10.531Z,96.40
2019-03-01T17:08:43.576Z,96.10
2019-03-01T17:11:18.956Z,96.70
2019-03-01T17:13:51.226Z,96.70
2019-03-01T17:16:24.796Z,96.50
2019-03-01T17:18:56.804Z,96.60
2019-03-01T17:21:29.217Z,96.10
2019-03-01T17:24:03.466Z,96.20
2019-03-01T17:26:36.055Z,96.20
2019-03-01T17:29:09.414Z,95.80
2019-03-01T17:31:41.164Z,95.80
2019-03-01T17:34:13.772Z,95.50
2019-03-01T17:36:49.976Z,95.20
2019-03-01T17:39:21.879Z,95.70
2019-03-01T17:41:56.852Z,95.50
2019-03-01T17:44:31.193Z,95.50
2019-03-01T17:47:06.072Z,95.10
2019-03-01T17:49:39.352Z,94.90
2019-03-01T17:52:14.398Z,94.80
2019-03-01T17:54:47.409Z,94.20
2019-03-01T17:57:25.299Z,94.00
2019-03-01T17:59:57.389Z,94.00
2019-03-01T18:02:28.792Z,93.90
2019-03-01T18:05:02.330Z,94.10
2019-03-01T18:07:36.232Z,93.90
2019-03-01T18:10:10.316Z,94.20
2019-03-01T18:12:44.093Z,93.80
2019-03-01T18:15:16.281Z,93.30
2019-03-01T18:17:47.796Z,93.60
2019-03-01T18:20:19.694Z,93.90
2019-03-01T18:22:51.903Z,93.90
2019-03-01T18:25:27.121Z,93.60
2019-03-01T18:27:57.135Z,93.80
2019-03-01T18:30:30.093Z,93.20
2019-03-01T18:33:02.198Z,92.50
2019-03-01T18:35:36.650Z,92.70
2019-03-01T18:38:08.713Z,93.10
2019-03-01T18:40:38.390Z,92.80
2019-03-01T18:43:13.057Z,92.70
2019-03-01T18:45:44.483Z,92.70
2019-03-01T18:48:17.451Z,93.30
2019-03-01T18:50:50.172Z,93.10
2019-03-01T18:53:25.059Z,92.60
2019-03-01T18:55:57.039Z,92.80
2019-03-01T18:58:29.135Z,93.20
2019-03-01T19:01:02.927Z,93.20
2019-03-01T19:03:36.600Z,93.20
2019-03-01T19:06:08.980Z,93.30
2019-03-01T19:08:41.419Z,92.90
2019-03-01T19:11:15.963Z,93.40
2019-03-01T19:13:49.491Z,93.40
2019-03-01T19:16:25.318Z,93.50
2019-03-01T19:19:00.618Z,93.70
2019-03-01T19:21:33.870Z,93.60
2019-03-01T19:24:08.064Z,94.20
2019-03-01T19:26:40.249Z,94.60
2019-03-01T19:29:14.600Z,94.90
2019-03-01T19:31:47.176Z,94.80
2019-03-01T19:34:19.510Z,94.40
2019-03-01T19:36:52.075Z,94.00
2019-03-01T19:39:26.877Z,94.10
2019-03-01T19:42:00.845Z,94.00
2019-03-01T19:44:32.884Z,94.00
2019-03-01T19:47:05.748Z,94.00
2019-03-01T19:49:38.470Z,93.00
2019-03-01T19:52:13.778Z,93.10
2019-03-01T19:54:46.095Z,93.00
2019-03-01T19:57:18.502Z,93.00
2019-03-01T19:59:53.212Z,92.50
2019-03-01T20:02:31.037Z,91.90
2019-03-01T20:05:07.599Z,92.00
2019-03-01T20:07:41.333Z,91.70
2019-03-01T20:10:14.977Z,91.60
2019-03-01T20:12:50.424Z,91.50
2019-03-01T20:15:24.293Z,91.70
2019-03-01T20:17:56.771Z,91.70
2019-03-01T20:20:33.357Z,91.60
2019-03-01T20:23:08.855Z,91.60
2019-03-01T20:25:41.690Z,91.60
2019-03-01T20:28:17.841Z,91.10
2019-03-01T20:30:52.035Z,91.00
2019-03-01T20:33:27.068Z,90.80
2019-03-01T20:35:58.920Z,90.30
2019-03-01T20:38:31.684Z,90.10
2019-03-01T20:43:37.862Z,90.50
2019-03-01T20:46:12.052Z,90.20
2019-03-01T20:48:47.315Z,90.50
2019-03-01T20:51:26.551Z,90.40
2019-03-01T20:53:54.910Z,90.50
2019-03-01T20:56:28.792Z,90.70
2019-03-01T20:59:02.897Z,90.80
2019-03-01T21:01:38.183Z,90.70
2019-03-01T21:04:13.620Z,90.40
2019-03-01T21:06:47.102Z,90.10
2019-03-01T21:09:19.815Z,90.20
2019-03-01T21:11:53.882Z,90.20
2019-03-01T21:14:27.187Z,90.50
2019-03-01T21:17:00.190Z,90.60
2019-03-01T21:19:33.403Z,90.80
2019-03-01T21:22:08.293Z,90.90
2019-03-01T21:24:43.962Z,90.70
2019-03-01T21:27:16.745Z,90.70
2019-03-01T21:29:51.445Z,91.00
2019-03-01T21:32:24.589Z,90.70
2019-03-01T21:34:57.424Z,90.70
2019-03-01T21:37:29.484Z,90.90
2019-03-01T21:40:03.261Z,90.60
2019-03-01T21:42:36.815Z,90.50
2019-03-01T21:45:10.593Z,90.50
2019-03-01T21:47:44.700Z,90.60
2019-03-01T21:50:19.428Z,91.00
2019-03-01T21:52:52.364Z,90.00
2019-03-01T21:55:28.206Z,90.20
2019-03-01T21:57:58.543Z,90.30
2019-03-01T22:00:32.183Z,90.50
2019-03-01T22:03:06.458Z,90.40
2019-03-01T22:05:38.666Z,90.40
2019-03-01T22:08:13.821Z,90.60
2019-03-01T22:10:47.344Z,91.00
2019-03-01T22:13:21.416Z,91.20
2019-03-01T22:15:53.942Z,91.10
2019-03-01T22:18:27.473Z,91.30
2019-03-01T22:20:59.426Z,91.30
2019-03-01T22:23:35.079Z,91.50
2019-03-01T22:26:09.649Z,91.70
2019-03-01T22:28:41.265Z,91.90
2019-03-01T22:31:14.947Z,92.20
2019-03-01T22:33:46.819Z,92.30
2019-03-01T22:36:19.254Z,92.40
2019-03-01T22:38:51.995Z,92.50
2019-03-01T22:41:24.811Z,92.50
2019-03-01T22:43:58.273Z,92.50
2019-03-01T22:46:31.374Z,92.60
2019-03-01T22:49:03.152Z,92.40
2019-03-01T22:51:35.828Z,92.30
2019-03-01T22:54:08.514Z,92.20
2019-03-01T22:56:40.426Z,91.70
2019-03-01T22:59:12.674Z,91.80
2019-03-01T23:01:48.117Z,91.80
2019-03-01T23:04:21.150Z,91.90
2019-03-01T23:06:53.472Z,92.00
2019-03-01T23:09:25.209Z,92.40
2019-03-01T23:11:58.955Z,92.80
2019-03-01T23:14:32.043Z,92.60
2019-03-01T23:17:05.805Z,92.80
2019-03-01T23:19:39.223Z,92.50
2019-03-01T23:22:11.975Z,92.40
2019-03-01T23:24:43.773Z,92.80
2019-03-01T23:27:16.038Z,92.90
2019-03-01T23:29:50.985Z,93.00
2019-03-01T23:32:24.165Z,93.10
2019-03-01T23:34:56.544Z,93.20
2019-03-01T23:37:28.885Z,93.40
2019-03-01T23:40:03.093Z,93.50
2019-03-01T23:42:35.814Z,93.70
2019-03-01T23:45:07.679Z,93.80
2019-03-01T23:47:39.746Z,94.00
2019-03-01T23:50:12.083Z,94.30
2019-03-01T23:52:44.332Z,94.60
2019-03-01T23:55:19.048Z,94.70
2019-03-01T23:57:52.500Z,94.70
